createdAt,value
2023-05-18T00:04:26.916Z,82.86
2023-05-18T00:09:33.429Z,81.59
2023-05-18T00:14:41.183Z,82.47
2023-05-18T00:19:47.003Z,82.57
2023-05-18T00:24:54.578Z,82.86
2023-05-18T00:30:02.786Z,83.73
2023-05-18T00:35:09.218Z,84.93
2023-05-18T00:40:16.021Z,84.85
2023-05-18T00:45:23.917Z,86.96
2023-05-18T00:50:29.460Z,86.20
2023-05-18T00:55:36.961Z,86.48
2023-05-18T01:00:44.891Z,87.98
2023-05-18T01:05:56.028Z,87.57
2023-05-18T01:11:24.992Z,87.84
2023-05-18T01:16:41.962Z,86.58
2023-05-18T01:22:01.108Z,86.22
2023-05-18T01:27:12.062Z,86.67
2023-05-18T01:32:22.217Z,86.28
2023-05-18T01:37:31.629Z,87.48
2023-05-18T01:42:47.638Z,88.91
2023-05-18T01:47:57.040Z,87.45
2023-05-18T01:53:09.342Z,88.96
2023-05-18T01:58:17.726Z,89.51
2023-05-18T02:03:24.940Z,93.05
2023-05-18T02:08:30.028Z,95.46
2023-05-18T02:13:40.851Z,94.20
2023-05-18T02:18:46.136Z,92.91
2023-05-18T02:23:52.407Z,94.29
2023-05-18T02:29:00.180Z,90.66
2023-05-18T02:34:05.293Z,92.25
2023-05-18T02:39:10.683Z,92.38
2023-05-18T02:44:18.503Z,92.84
2023-05-18T02:49:23.736Z,91.81
2023-05-18T02:54:30.124Z,92.52
2023-05-18T02:59:38.869Z,94.52
2023-05-18T03:04:48.129Z,96.83
2023-05-18T03:09:54.490Z,97.12
2023-05-18T03:15:06.001Z,96.46
2023-05-18T03:20:14.974Z,95.76
2023-05-18T03:25:20.843Z,94.94
2023-05-18T03:30:28.786Z,93.82
2023-05-18T03:35:34.305Z,95.49
2023-05-18T03:40:40.118Z,94.51
2023-05-18T03:45:47.899Z,93.02
2023-05-18T03:50:53.264Z,93.07
2023-05-18T03:55:58.726Z,95.00
2023-05-18T04:01:08.412Z,93.48
2023-05-18T04:06:13.613Z,93.57
2023-05-18T04:11:19.675Z,96.94
2023-05-18T04:16:27.793Z,95.63
2023-05-18T04:21:35.572Z,95.38
2023-05-18T04:26:40.659Z,95.13
2023-05-18T04:31:50.407Z,95.03
2023-05-18T04:36:58.816Z,92.72
2023-05-18T04:42:04.821Z,89.91
2023-05-18T04:47:13.115Z,86.65
2023-05-18T04:52:26.276Z,83.98
2023-05-18T04:57:33.269Z,83.49
2023-05-18T05:02:45.398Z,80.74
2023-05-18T05:07:52.688Z,77.71
2023-05-18T05:12:58.211Z,75.42
2023-05-18T05:18:06.055Z,73.75
2023-05-18T05:23:11.478Z,69.11
2023-05-18T05:28:19.562Z,65.10
2023-05-18T05:33:29.673Z,62.40
2023-05-18T05:38:35.168Z,62.54
2023-05-18T05:43:40.932Z,64.25
2023-05-18T05:48:48.840Z,66.27
2023-05-18T05:53:54.042Z,63.66
2023-05-18T05:59:00.153Z,63.98
2023-05-18T06:04:11.091Z,67.52
2023-05-18T06:09:17.551Z,69.06
2023-05-18T06:14:23.128Z,69.84
2023-05-18T06:19:32.349Z,68.10
2023-05-18T06:24:37.982Z,66.24
2023-05-18T06:30:01.930Z,64.56
2023-05-18T06:35:35.753Z,62.45
2023-05-18T06:40:56.481Z,59.96
2023-05-18T06:46:10.265Z,60.32
2023-05-18T06:51:22.298Z,57.12
2023-05-18T07:01:58.917Z,60.76
2023-05-18T07:07:40.993Z,64.16
2023-05-18T07:13:06.170Z,64.44
2023-05-18T07:18:45.636Z,65.22
2023-05-18T07:24:47.128Z,63.90
2023-05-18T07:30:20.723Z,62.57
2023-05-18T07:35:34.030Z,59.75
2023-05-18T07:47:16.518Z,61.13
2023-05-18T07:52:25.312Z,60.92
2023-05-18T08:08:40.897Z,60.25
2023-05-18T08:13:52.675Z,61.09
2023-05-18T08:19:03.065Z,62.99
2023-05-18T08:24:25.254Z,61.76
2023-05-18T08:29:34.156Z,63.09
2023-05-18T08:34:59.246Z,61.41
2023-05-18T08:40:10.040Z,62.17
2023-05-18T08:45:23.834Z,62.04
2023-05-18T08:50:46.040Z,60.39
2023-05-18T08:55:55.160Z,60.63
2023-05-18T09:01:03.823Z,59.88
2023-05-18T09:06:14.229Z,59.15
2023-05-18T09:11:25.384Z,58.63
2023-05-18T09:16:33.125Z,59.05
2023-05-18T09:21:42.637Z,59.42
2023-05-18T09:26:48.902Z,58.93
2023-05-18T09:31:59.120Z,59.61
2023-05-18T09:37:08.198Z,59.18
2023-05-18T09:42:13.780Z,59.40
2023-05-18T09:47:22.505Z,60.22
2023-05-18T09:52:31.048Z,58.75
2023-05-18T09:57:44.487Z,58.28
2023-05-18T10:02:56.400Z,58.96
2023-05-18T10:08:04.936Z,57.92
2023-05-18T10:13:11.183Z,56.66
2023-05-18T10:23:43.587Z,56.96
2023-05-18T10:28:55.266Z,56.83
2023-05-18T10:34:02.193Z,56.20
2023-05-18T10:39:13.344Z,55.92
2023-05-18T10:44:20.265Z,55.34
2023-05-18T10:49:30.739Z,56.31
2023-05-18T10:54:58.760Z,55.32
2023-05-18T11:05:48.696Z,55.73
2023-05-18T11:11:12.674Z,55.70
2023-05-18T11:16:46.262Z,56.11
2023-05-18T11:28:41.853Z,57.04
2023-05-18T11:39:58.226Z,56.23
2023-05-18T12:02:17.063Z,56.35
2023-05-18T12:07:28.729Z,56.87
2023-05-18T12:18:08.665Z,56.73
2023-05-18T12:23:18.847Z,56.39
2023-05-18T12:39:29.682Z,58.23
2023-05-18T12:44:38.718Z,58.27
2023-05-18T12:49:52.762Z,57.38
2023-05-18T12:55:01.825Z,56.31
2023-05-18T13:00:16.527Z,57.47
2023-05-18T13:05:34.261Z,57.23
2023-05-18T13:11:11.974Z,56.48
2023-05-18T13:17:14.432Z,56.37
2023-05-18T13:22:22.875Z,56.00
2023-05-18T13:33:19.998Z,56.08
2023-05-18T13:38:27.035Z,55.95
2023-05-18T13:49:27.622Z,56.53
2023-05-18T13:54:46.418Z,55.75
2023-05-18T14:11:27.746Z,55.27
2023-05-18T14:16:33.836Z,54.82
2023-05-18T14:21:39.627Z,56.11
2023-05-18T14:27:01.720Z,55.93
2023-05-18T14:32:08.190Z,55.08
2023-05-18T14:59:35.659Z,56.07
2023-05-18T15:10:23.653Z,54.79
2023-05-18T15:15:29.647Z,54.57
2023-05-18T15:26:11.740Z,57.41
2023-05-18T15:31:17.983Z,56.85
2023-05-18T15:36:46.568Z,55.62
2023-05-18T15:41:55.375Z,54.58
2023-05-18T15:52:48.380Z,54.68
2023-05-18T15:58:03.531Z,55.13
2023-05-18T16:03:33.597Z,55.56
2023-05-18T16:08:41.454Z,54.38
2023-05-18T16:13:54.184Z,53.86
2023-05-18T16:19:00.916Z,53.31
2023-05-18T16:24:06.516Z,53.38
2023-05-18T16:29:14.650Z,53.66
2023-05-18T16:34:21.351Z,53.97
2023-05-18T16:39:27.382Z,54.31
2023-05-18T16:44:36.423Z,54.13
2023-05-18T16:49:44.175Z,55.24
2023-05-18T16:54:51.883Z,55.73
2023-05-18T17:00:01.253Z,56.54
2023-05-18T17:05:06.935Z,57.54
2023-05-18T17:10:13.475Z,57.58
2023-05-18T17:15:21.500Z,57.73
2023-05-18T17:20:28.143Z,57.97
2023-05-18T17:25:33.382Z,58.51
2023-05-18T17:30:41.245Z,58.71
2023-05-18T17:35:46.497Z,59.23
2023-05-18T17:40:51.713Z,59.53
2023-05-18T17:46:03.600Z,59.42
2023-05-18T17:51:08.994Z,59.47
2023-05-18T17:56:14.444Z,60.41
2023-05-18T18:01:25.175Z,60.25
2023-05-18T18:06:31.792Z,60.11
2023-05-18T18:11:38.638Z,60.75
2023-05-18T18:16:46.795Z,60.76
2023-05-18T18:21:55.505Z,61.28
2023-05-18T18:27:04.996Z,61.78
2023-05-18T18:32:13.256Z,62.25
2023-05-18T18:37:18.695Z,62.52
2023-05-18T18:42:23.904Z,63.20
2023-05-18T18:47:31.887Z,63.27
2023-05-18T18:52:40.715Z,63.24
2023-05-18T18:57:53.650Z,63.27
2023-05-18T19:03:06.212Z,65.11
2023-05-18T19:08:11.666Z,65.56
2023-05-18T19:13:16.812Z,67.02
2023-05-18T19:18:26.068Z,66.98
2023-05-18T19:23:31.309Z,67.48
2023-05-18T19:28:36.634Z,68.04
2023-05-18T19:33:45.769Z,68.40
2023-05-18T19:38:53.214Z,68.28
2023-05-18T19:44:00.534Z,68.41
2023-05-18T19:49:10.310Z,68.56
2023-05-18T19:54:15.516Z,69.33
2023-05-18T19:59:21.078Z,69.53
2023-05-18T20:04:31.338Z,70.42
2023-05-18T20:09:37.170Z,69.99
2023-05-18T20:14:46.060Z,69.10
2023-05-18T20:19:56.248Z,69.23
2023-05-18T20:25:06.028Z,69.40
2023-05-18T20:30:12.388Z,69.04
2023-05-18T20:35:21.205Z,70.35
2023-05-18T20:40:26.693Z,72.11
2023-05-18T20:45:32.707Z,75.47
2023-05-18T20:50:40.771Z,76.42
2023-05-18T20:55:48.326Z,77.74
2023-05-18T21:00:55.801Z,76.64
2023-05-18T21:06:19.483Z,76.57
2023-05-18T21:11:25.936Z,76.91
2023-05-18T21:16:31.286Z,79.63
2023-05-18T21:21:40.809Z,78.29
2023-05-18T21:26:46.404Z,78.80
2023-05-18T21:31:51.871Z,80.85
2023-05-18T21:37:05.374Z,80.62
2023-05-18T21:42:14.462Z,80.72
2023-05-18T21:47:28.404Z,82.21
2023-05-18T21:52:40.280Z,83.71
2023-05-18T21:57:46.289Z,82.90
2023-05-18T22:02:51.559Z,84.35
2023-05-18T22:08:02.429Z,87.26
2023-05-18T22:13:07.556Z,88.47
2023-05-18T22:18:15.274Z,85.64
2023-05-18T22:23:23.162Z,83.60
2023-05-18T22:28:28.291Z,81.04
2023-05-18T22:33:35.274Z,83.95
2023-05-18T22:38:44.456Z,86.52
2023-05-18T22:43:49.721Z,83.55
2023-05-18T22:48:56.088Z,84.47
2023-05-18T22:54:04.406Z,85.46
2023-05-18T22:59:11.750Z,85.68
2023-05-18T23:04:20.015Z,81.58
2023-05-18T23:09:30.767Z,81.97
2023-05-18T23:14:36.264Z,77.52
2023-05-18T23:19:43.968Z,76.88
2023-05-18T23:24:51.742Z,77.28
2023-05-18T23:29:57.242Z,76.57
2023-05-18T23:35:06.942Z,76.91
2023-05-18T23:40:16.907Z,77.21
2023-05-18T23:45:24.028Z,78.10
2023-05-18T23:50:30.382Z,78.90
2023-05-18T23:55:40.043Z,79.89
